sensor_id;sensor_type;location;lat;lon;timestamp;P1;durP1;ratioP1;P2;durP2;ratioP2
53833;SDS011;39735;51.432;5.482;2023-07-13T00:01:57;4.68;;;1.77;;
53833;SDS011;39735;51.432;5.482;2023-07-13T00:04:23;13.77;;;1.90;;
53833;SDS011;39735;51.432;5.482;2023-07-13T00:06:50;15.30;;;2.20;;
53833;SDS011;39735;51.432;5.482;2023-07-13T00:09:16;6.13;;;2.33;;
53833;SDS011;39735;51.432;5.482;2023-07-13T00:11:41;10.73;;;2.17;;
53833;SDS011;39735;51.432;5.482;2023-07-13T00:14:06;15.88;;;1.88;;
53833;SDS011;39735;51.432;5.482;2023-07-13T00:16:33;13.48;;;3.97;;
53833;SDS011;39735;51.432;5.482;2023-07-13T00:18:59;13.50;;;2.58;;
53833;SDS011;39735;51.432;5.482;2023-07-13T00:21:25;7.80;;;2.45;;
53833;SDS011;39735;51.432;5.482;2023-07-13T00:23:50;11.73;;;1.60;;
53833;SDS011;39735;51.432;5.482;2023-07-13T00:26:15;20.33;;;3.25;;
53833;SDS011;39735;51.432;5.482;2023-07-13T00:28:42;5.60;;;2.05;;
53833;SDS011;39735;51.432;5.482;2023-07-13T00:31:08;20.80;;;3.35;;
53833;SDS011;39735;51.432;5.482;2023-07-13T00:33:33;10.15;;;1.60;;
53833;SDS011;39735;51.432;5.482;2023-07-13T00:35:59;10.32;;;2.35;;
53833;SDS011;39735;51.432;5.482;2023-07-13T00:38:24;5.93;;;1.47;;
53833;SDS011;39735;51.432;5.482;2023-07-13T00:40:49;10.15;;;1.67;;
53833;SDS011;39735;51.432;5.482;2023-07-13T00:43:16;7.05;;;1.80;;
53833;SDS011;39735;51.432;5.482;2023-07-13T00:48:14;6.35;;;1.38;;
53833;SDS011;39735;51.432;5.482;2023-07-13T00:50:40;13.20;;;2.30;;
53833;SDS011;39735;51.432;5.482;2023-07-13T00:53:06;10.15;;;2.25;;
53833;SDS011;39735;51.432;5.482;2023-07-13T00:55:32;11.57;;;1.65;;
53833;SDS011;39735;51.432;5.482;2023-07-13T00:57:58;21.23;;;2.28;;
53833;SDS011;39735;51.432;5.482;2023-07-13T01:00:23;17.60;;;2.47;;
53833;SDS011;39735;51.432;5.482;2023-07-13T01:02:50;22.65;;;3.13;;
53833;SDS011;39735;51.432;5.482;2023-07-13T01:05:17;8.43;;;1.83;;
53833;SDS011;39735;51.432;5.482;2023-07-13T01:07:43;7.60;;;1.73;;
53833;SDS011;39735;51.432;5.482;2023-07-13T01:10:10;10.00;;;3.35;;
53833;SDS011;39735;51.432;5.482;2023-07-13T01:12:35;15.20;;;3.45;;
53833;SDS011;39735;51.432;5.482;2023-07-13T01:15:01;16.55;;;4.72;;
53833;SDS011;39735;51.432;5.482;2023-07-13T01:17:27;9.32;;;1.92;;
53833;SDS011;39735;51.432;5.482;2023-07-13T01:19:52;22.48;;;3.20;;
53833;SDS011;39735;51.432;5.482;2023-07-13T01:22:18;15.90;;;2.20;;
53833;SDS011;39735;51.432;5.482;2023-07-13T01:24:44;7.38;;;2.17;;
53833;SDS011;39735;51.432;5.482;2023-07-13T01:27:11;14.85;;;2.75;;
53833;SDS011;39735;51.432;5.482;2023-07-13T01:29:37;10.02;;;1.42;;
53833;SDS011;39735;51.432;5.482;2023-07-13T01:32:07;18.30;;;2.53;;
53833;SDS011;39735;51.432;5.482;2023-07-13T01:34:33;14.68;;;2.42;;
53833;SDS011;39735;51.432;5.482;2023-07-13T01:36:58;12.65;;;2.10;;
53833;SDS011;39735;51.432;5.482;2023-07-13T01:39:23;9.07;;;2.00;;
53833;SDS011;39735;51.432;5.482;2023-07-13T01:41:49;17.95;;;2.75;;
53833;SDS011;39735;51.432;5.482;2023-07-13T01:44:14;11.77;;;2.17;;
53833;SDS011;39735;51.432;5.482;2023-07-13T01:46:39;17.77;;;3.33;;
53833;SDS011;39735;51.432;5.482;2023-07-13T01:49:04;10.77;;;2.42;;
53833;SDS011;39735;51.432;5.482;2023-07-13T01:51:30;11.18;;;1.52;;
53833;SDS011;39735;51.432;5.482;2023-07-13T01:53:55;13.32;;;2.28;;
53833;SDS011;39735;51.432;5.482;2023-07-13T01:56:20;19.23;;;4.87;;
53833;SDS011;39735;51.432;5.482;2023-07-13T01:58:45;13.98;;;2.92;;
53833;SDS011;39735;51.432;5.482;2023-07-13T02:01:11;14.70;;;2.60;;
53833;SDS011;39735;51.432;5.482;2023-07-13T02:03:36;13.33;;;2.07;;
53833;SDS011;39735;51.432;5.482;2023-07-13T02:06:01;18.37;;;3.03;;
53833;SDS011;39735;51.432;5.482;2023-07-13T02:08:26;15.30;;;2.75;;
53833;SDS011;39735;51.432;5.482;2023-07-13T02:10:52;5.20;;;1.83;;
53833;SDS011;39735;51.432;5.482;2023-07-13T02:13:17;18.27;;;3.33;;
53833;SDS011;39735;51.432;5.482;2023-07-13T02:15:42;11.10;;;2.20;;
53833;SDS011;39735;51.432;5.482;2023-07-13T02:18:07;7.55;;;2.15;;
53833;SDS011;39735;51.432;5.482;2023-07-13T02:20:33;16.33;;;3.95;;
53833;SDS011;39735;51.432;5.482;2023-07-13T02:22:58;9.82;;;2.67;;
53833;SDS011;39735;51.432;5.482;2023-07-13T02:25:24;9.90;;;2.50;;
53833;SDS011;39735;51.432;5.482;2023-07-13T02:27:50;14.90;;;2.90;;
53833;SDS011;39735;51.432;5.482;2023-07-13T02:30:15;13.50;;;3.28;;
53833;SDS011;39735;51.432;5.482;2023-07-13T02:32:40;19.27;;;2.75;;
53833;SDS011;39735;51.432;5.482;2023-07-13T02:35:06;20.93;;;3.80;;
53833;SDS011;39735;51.432;5.482;2023-07-13T02:37:31;14.48;;;2.15;;
53833;SDS011;39735;51.432;5.482;2023-07-13T02:39:56;12.32;;;2.53;;
53833;SDS011;39735;51.432;5.482;2023-07-13T02:42:21;12.02;;;2.45;;
53833;SDS011;39735;51.432;5.482;2023-07-13T02:44:47;7.85;;;1.80;;
53833;SDS011;39735;51.432;5.482;2023-07-13T02:47:13;7.22;;;2.10;;
53833;SDS011;39735;51.432;5.482;2023-07-13T02:49:38;7.60;;;2.45;;
53833;SDS011;39735;51.432;5.482;2023-07-13T02:52:03;12.75;;;2.97;;
53833;SDS011;39735;51.432;5.482;2023-07-13T02:54:29;21.17;;;2.35;;
53833;SDS011;39735;51.432;5.482;2023-07-13T02:56:54;5.63;;;1.67;;
53833;SDS011;39735;51.432;5.482;2023-07-13T02:59:19;9.75;;;2.50;;
53833;SDS011;39735;51.432;5.482;2023-07-13T03:01:44;8.90;;;2.03;;
53833;SDS011;39735;51.432;5.482;2023-07-13T03:04:09;19.33;;;3.20;;
53833;SDS011;39735;51.432;5.482;2023-07-13T03:06:35;23.55;;;5.25;;
53833;SDS011;39735;51.432;5.482;2023-07-13T03:09:00;20.02;;;3.63;;
53833;SDS011;39735;51.432;5.482;2023-07-13T03:11:25;28.23;;;3.73;;
53833;SDS011;39735;51.432;5.482;2023-07-13T03:13:51;20.10;;;3.55;;
53833;SDS011;39735;51.432;5.482;2023-07-13T03:16:16;24.70;;;4.18;;
53833;SDS011;39735;51.432;5.482;2023-07-13T03:18:42;14.05;;;2.53;;
53833;SDS011;39735;51.432;5.482;2023-07-13T03:21:07;10.50;;;3.45;;
53833;SDS011;39735;51.432;5.482;2023-07-13T03:23:32;20.80;;;4.38;;
53833;SDS011;39735;51.432;5.482;2023-07-13T03:26:02;17.87;;;3.93;;
53833;SDS011;39735;51.432;5.482;2023-07-13T03:28:27;12.13;;;2.60;;
53833;SDS011;39735;51.432;5.482;2023-07-13T03:31:03;13.07;;;3.07;;
53833;SDS011;39735;51.432;5.482;2023-07-13T03:33:29;19.13;;;3.58;;
53833;SDS011;39735;51.432;5.482;2023-07-13T03:35:54;10.85;;;2.78;;
53833;SDS011;39735;51.432;5.482;2023-07-13T03:38:19;32.67;;;3.73;;
53833;SDS011;39735;51.432;5.482;2023-07-13T03:40:45;11.27;;;2.53;;
53833;SDS011;39735;51.432;5.482;2023-07-13T03:43:10;20.50;;;2.70;;
53833;SDS011;39735;51.432;5.482;2023-07-13T03:45:37;5.63;;;2.97;;
53833;SDS011;39735;51.432;5.482;2023-07-13T03:48:02;15.88;;;3.30;;
53833;SDS011;39735;51.432;5.482;2023-07-13T03:50:27;21.02;;;3.22;;
53833;SDS011;39735;51.432;5.482;2023-07-13T03:52:53;13.32;;;3.17;;
53833;SDS011;39735;51.432;5.482;2023-07-13T03:55:18;22.77;;;5.30;;
53833;SDS011;39735;51.432;5.482;2023-07-13T03:57:43;17.60;;;4.30;;
53833;SDS011;39735;51.432;5.482;2023-07-13T04:00:08;10.10;;;2.70;;
53833;SDS011;39735;51.432;5.482;2023-07-13T04:02:34;25.17;;;4.65;;
53833;SDS011;39735;51.432;5.482;2023-07-13T04:05:00;12.55;;;4.25;;
53833;SDS011;39735;51.432;5.482;2023-07-13T04:07:25;21.55;;;4.20;;
53833;SDS011;39735;51.432;5.482;2023-07-13T04:09:50;24.55;;;4.43;;
53833;SDS011;39735;51.432;5.482;2023-07-13T04:12:16;14.93;;;3.33;;
53833;SDS011;39735;51.432;5.482;2023-07-13T04:14:41;13.67;;;4.10;;
53833;SDS011;39735;51.432;5.482;2023-07-13T04:17:06;30.80;;;3.93;;
53833;SDS011;39735;51.432;5.482;2023-07-13T04:19:31;21.88;;;6.28;;
53833;SDS011;39735;51.432;5.482;2023-07-13T04:21:56;16.87;;;4.83;;
53833;SDS011;39735;51.432;5.482;2023-07-13T04:24:22;21.08;;;5.15;;
53833;SDS011;39735;51.432;5.482;2023-07-13T04:26:47;17.50;;;3.37;;
53833;SDS011;39735;51.432;5.482;2023-07-13T04:29:12;30.63;;;5.87;;
53833;SDS011;39735;51.432;5.482;2023-07-13T04:31:37;30.20;;;5.27;;
53833;SDS011;39735;51.432;5.482;2023-07-13T04:34:03;29.27;;;5.93;;
53833;SDS011;39735;51.432;5.482;2023-07-13T04:36:28;24.83;;;5.93;;
53833;SDS011;39735;51.432;5.482;2023-07-13T04:38:53;24.87;;;6.47;;
53833;SDS011;39735;51.432;5.482;2023-07-13T04:41:19;18.20;;;6.03;;
53833;SDS011;39735;51.432;5.482;2023-07-13T04:43:45;18.88;;;5.82;;
53833;SDS011;39735;51.432;5.482;2023-07-13T04:46:11;26.42;;;6.47;;
53833;SDS011;39735;51.432;5.482;2023-07-13T04:48:36;15.45;;;5.15;;
53833;SDS011;39735;51.432;5.482;2023-07-13T04:51:02;19.05;;;5.45;;
53833;SDS011;39735;51.432;5.482;2023-07-13T04:53:28;35.22;;;6.07;;
53833;SDS011;39735;51.432;5.482;2023-07-13T04:55:54;33.53;;;7.03;;
53833;SDS011;39735;51.432;5.482;2023-07-13T04:58:19;29.88;;;8.05;;
53833;SDS011;39735;51.432;5.482;2023-07-13T05:00:44;33.03;;;7.90;;
53833;SDS011;39735;51.432;5.482;2023-07-13T05:03:09;28.13;;;7.00;;
53833;SDS011;39735;51.432;5.482;2023-07-13T05:05:35;34.10;;;7.83;;
53833;SDS011;39735;51.432;5.482;2023-07-13T05:08:00;38.85;;;7.80;;
53833;SDS011;39735;51.432;5.482;2023-07-13T05:10:25;21.65;;;8.20;;
53833;SDS011;39735;51.432;5.482;2023-07-13T05:12:50;28.35;;;7.07;;
53833;SDS011;39735;51.432;5.482;2023-07-13T05:15:16;26.13;;;6.80;;
53833;SDS011;39735;51.432;5.482;2023-07-13T05:17:45;23.52;;;8.18;;
53833;SDS011;39735;51.432;5.482;2023-07-13T05:20:11;34.30;;;10.38;;
53833;SDS011;39735;51.432;5.482;2023-07-13T05:22:36;29.52;;;9.68;;
53833;SDS011;39735;51.432;5.482;2023-07-13T05:25:04;26.85;;;9.65;;
53833;SDS011;39735;51.432;5.482;2023-07-13T05:27:29;49.17;;;9.77;;
53833;SDS011;39735;51.432;5.482;2023-07-13T05:29:54;40.90;;;7.53;;
53833;SDS011;39735;51.432;5.482;2023-07-13T05:32:20;41.47;;;9.45;;
53833;SDS011;39735;51.432;5.482;2023-07-13T05:34:45;51.95;;;10.35;;
53833;SDS011;39735;51.432;5.482;2023-07-13T05:37:10;32.73;;;8.83;;
53833;SDS011;39735;51.432;5.482;2023-07-13T05:39:35;32.97;;;7.80;;
53833;SDS011;39735;51.432;5.482;2023-07-13T05:42:01;58.43;;;10.50;;
53833;SDS011;39735;51.432;5.482;2023-07-13T05:44:27;23.52;;;7.47;;
53833;SDS011;39735;51.432;5.482;2023-07-13T05:46:52;41.22;;;8.52;;
53833;SDS011;39735;51.432;5.482;2023-07-13T05:49:17;65.68;;;10.18;;
53833;SDS011;39735;51.432;5.482;2023-07-13T05:51:43;32.95;;;8.82;;
53833;SDS011;39735;51.432;5.482;2023-07-13T05:54:08;34.80;;;6.82;;
53833;SDS011;39735;51.432;5.482;2023-07-13T05:56:33;33.93;;;9.20;;
53833;SDS011;39735;51.432;5.482;2023-07-13T05:58:58;32.10;;;8.43;;
53833;SDS011;39735;51.432;5.482;2023-07-13T06:01:24;41.67;;;7.78;;
53833;SDS011;39735;51.432;5.482;2023-07-13T06:03:49;60.13;;;12.60;;
53833;SDS011;39735;51.432;5.482;2023-07-13T06:06:15;37.40;;;10.98;;
53833;SDS011;39735;51.432;5.482;2023-07-13T06:08:41;25.42;;;9.65;;
53833;SDS011;39735;51.432;5.482;2023-07-13T06:11:07;25.90;;;9.07;;
53833;SDS011;39735;51.432;5.482;2023-07-13T06:13:34;31.50;;;9.45;;
53833;SDS011;39735;51.432;5.482;2023-07-13T06:16:01;61.67;;;11.98;;
53833;SDS011;39735;51.432;5.482;2023-07-13T06:18:29;62.50;;;10.23;;
53833;SDS011;39735;51.432;5.482;2023-07-13T06:20:54;41.53;;;10.73;;
53833;SDS011;39735;51.432;5.482;2023-07-13T06:23:19;38.95;;;12.27;;
53833;SDS011;39735;51.432;5.482;2023-07-13T06:25:44;43.42;;;9.98;;
53833;SDS011;39735;51.432;5.482;2023-07-13T06:28:10;41.55;;;11.93;;
53833;SDS011;39735;51.432;5.482;2023-07-13T06:30:37;38.97;;;10.83;;
53833;SDS011;39735;51.432;5.482;2023-07-13T06:33:03;60.05;;;13.88;;
53833;SDS011;39735;51.432;5.482;2023-07-13T06:35:28;33.78;;;8.35;;
53833;SDS011;39735;51.432;5.482;2023-07-13T06:37:53;44.57;;;11.23;;
53833;SDS011;39735;51.432;5.482;2023-07-13T06:40:18;46.28;;;12.13;;
53833;SDS011;39735;51.432;5.482;2023-07-13T06:42:43;37.63;;;10.17;;
53833;SDS011;39735;51.432;5.482;2023-07-13T06:45:09;46.97;;;11.27;;
53833;SDS011;39735;51.432;5.482;2023-07-13T06:47:34;54.53;;;11.85;;
53833;SDS011;39735;51.432;5.482;2023-07-13T06:50:00;44.38;;;10.18;;
53833;SDS011;39735;51.432;5.482;2023-07-13T06:52:25;30.98;;;8.00;;
53833;SDS011;39735;51.432;5.482;2023-07-13T06:54:50;44.13;;;8.05;;
53833;SDS011;39735;51.432;5.482;2023-07-13T06:57:15;34.83;;;10.97;;
53833;SDS011;39735;51.432;5.482;2023-07-13T06:59:40;50.57;;;12.33;;
53833;SDS011;39735;51.432;5.482;2023-07-13T07:02:06;53.97;;;11.30;;
53833;SDS011;39735;51.432;5.482;2023-07-13T07:04:31;31.37;;;8.83;;
53833;SDS011;39735;51.432;5.482;2023-07-13T07:06:56;49.67;;;8.90;;
53833;SDS011;39735;51.432;5.482;2023-07-13T07:09:22;42.95;;;10.70;;
53833;SDS011;39735;51.432;5.482;2023-07-13T07:11:47;46.45;;;10.18;;
53833;SDS011;39735;51.432;5.482;2023-07-13T07:14:12;38.35;;;10.63;;
53833;SDS011;39735;51.432;5.482;2023-07-13T07:16:37;26.10;;;9.80;;
53833;SDS011;39735;51.432;5.482;2023-07-13T07:19:03;52.10;;;9.47;;
53833;SDS011;39735;51.432;5.482;2023-07-13T07:21:28;45.22;;;10.05;;
53833;SDS011;39735;51.432;5.482;2023-07-13T07:23:53;37.97;;;8.87;;
53833;SDS011;39735;51.432;5.482;2023-07-13T07:26:18;26.35;;;7.05;;
53833;SDS011;39735;51.432;5.482;2023-07-13T07:28:44;48.10;;;11.73;;
53833;SDS011;39735;51.432;5.482;2023-07-13T07:31:09;39.30;;;9.00;;
53833;SDS011;39735;51.432;5.482;2023-07-13T07:33:34;36.50;;;8.05;;
53833;SDS011;39735;51.432;5.482;2023-07-13T07:36:00;24.07;;;6.53;;
53833;SDS011;39735;51.432;5.482;2023-07-13T07:38:25;52.83;;;9.63;;
53833;SDS011;39735;51.432;5.482;2023-07-13T07:40:51;25.10;;;7.75;;
53833;SDS011;39735;51.432;5.482;2023-07-13T07:43:16;29.52;;;8.20;;
53833;SDS011;39735;51.432;5.482;2023-07-13T07:45:41;33.30;;;7.85;;
53833;SDS011;39735;51.432;5.482;2023-07-13T07:48:06;47.30;;;10.73;;
53833;SDS011;39735;51.432;5.482;2023-07-13T07:50:32;44.60;;;9.07;;
53833;SDS011;39735;51.432;5.482;2023-07-13T07:52:57;19.30;;;7.30;;
53833;SDS011;39735;51.432;5.482;2023-07-13T07:55:23;33.70;;;7.28;;
53833;SDS011;39735;51.432;5.482;2023-07-13T07:57:49;42.28;;;7.78;;
53833;SDS011;39735;51.432;5.482;2023-07-13T08:00:14;38.22;;;7.35;;
53833;SDS011;39735;51.432;5.482;2023-07-13T08:02:40;39.75;;;7.78;;
53833;SDS011;39735;51.432;5.482;2023-07-13T08:05:06;26.50;;;5.43;;
53833;SDS011;39735;51.432;5.482;2023-07-13T08:07:31;32.65;;;7.15;;
53833;SDS011;39735;51.432;5.482;2023-07-13T08:09:57;36.85;;;5.25;;
53833;SDS011;39735;51.432;5.482;2023-07-13T08:12:22;31.53;;;7.13;;
53833;SDS011;39735;51.432;5.482;2023-07-13T08:14:49;23.23;;;6.03;;
53833;SDS011;39735;51.432;5.482;2023-07-13T08:17:18;30.27;;;6.30;;
53833;SDS011;39735;51.432;5.482;2023-07-13T08:19:43;35.07;;;5.23;;
53833;SDS011;39735;51.432;5.482;2023-07-13T08:22:08;36.87;;;5.70;;
53833;SDS011;39735;51.432;5.482;2023-07-13T08:24:33;28.20;;;5.63;;
53833;SDS011;39735;51.432;5.482;2023-07-13T08:26:59;25.88;;;5.28;;
53833;SDS011;39735;51.432;5.482;2023-07-13T08:29:24;19.95;;;4.55;;
53833;SDS011;39735;51.432;5.482;2023-07-13T08:31:50;31.70;;;7.47;;
53833;SDS011;39735;51.432;5.482;2023-07-13T08:34:15;41.10;;;7.60;;
53833;SDS011;39735;51.432;5.482;2023-07-13T08:36:40;32.17;;;6.77;;
53833;SDS011;39735;51.432;5.482;2023-07-13T08:39:05;25.17;;;6.90;;
53833;SDS011;39735;51.432;5.482;2023-07-13T08:41:31;36.65;;;5.05;;
53833;SDS011;39735;51.432;5.482;2023-07-13T08:43:58;41.65;;;6.93;;
53833;SDS011;39735;51.432;5.482;2023-07-13T08:46:25;21.38;;;5.53;;
53833;SDS011;39735;51.432;5.482;2023-07-13T08:48:52;43.42;;;6.80;;
53833;SDS011;39735;51.432;5.482;2023-07-13T08:53:57;26.65;;;4.30;;
53833;SDS011;39735;51.432;5.482;2023-07-13T08:56:24;27.27;;;5.22;;
53833;SDS011;39735;51.432;5.482;2023-07-13T08:58:58;23.80;;;4.47;;
53833;SDS011;39735;51.432;5.482;2023-07-13T09:01:28;25.13;;;5.15;;
53833;SDS011;39735;51.432;5.482;2023-07-13T09:06:58;15.45;;;5.85;;
53833;SDS011;39735;51.432;5.482;2023-07-13T09:14:33;10.45;;;4.65;;
53833;SDS011;39735;51.432;5.482;2023-07-13T09:17:00;18.75;;;5.38;;
53833;SDS011;39735;51.432;5.482;2023-07-13T09:19:27;20.48;;;4.20;;
53833;SDS011;39735;51.432;5.482;2023-07-13T09:21:53;15.52;;;4.72;;
53833;SDS011;39735;51.432;5.482;2023-07-13T09:26:46;17.43;;;2.93;;
53833;SDS011;39735;51.432;5.482;2023-07-13T09:29:14;15.57;;;3.10;;
53833;SDS011;39735;51.432;5.482;2023-07-13T09:31:42;15.77;;;4.78;;
53833;SDS011;39735;51.432;5.482;2023-07-13T09:34:12;21.80;;;4.10;;
53833;SDS011;39735;51.432;5.482;2023-07-13T09:36:37;16.23;;;4.35;;
53833;SDS011;39735;51.432;5.482;2023-07-13T09:42:05;25.85;;;4.35;;
53833;SDS011;39735;51.432;5.482;2023-07-13T09:44:36;24.65;;;3.88;;
53833;SDS011;39735;51.432;5.482;2023-07-13T09:47:02;18.67;;;3.55;;
53833;SDS011;39735;51.432;5.482;2023-07-13T09:49:28;23.75;;;4.20;;
53833;SDS011;39735;51.432;5.482;2023-07-13T09:52:12;27.50;;;5.47;;
53833;SDS011;39735;51.432;5.482;2023-07-13T09:54:39;21.75;;;4.35;;
53833;SDS011;39735;51.432;5.482;2023-07-13T09:57:14;23.38;;;4.38;;
53833;SDS011;39735;51.432;5.482;2023-07-13T09:59:41;15.38;;;4.13;;
53833;SDS011;39735;51.432;5.482;2023-07-13T10:04:56;11.10;;;3.30;;
53833;SDS011;39735;51.432;5.482;2023-07-13T10:07:23;18.00;;;4.72;;
53833;SDS011;39735;51.432;5.482;2023-07-13T10:09:51;30.05;;;9.13;;
53833;SDS011;39735;51.432;5.482;2023-07-13T10:12:18;31.13;;;5.55;;
53833;SDS011;39735;51.432;5.482;2023-07-13T10:14:43;21.52;;;5.93;;
53833;SDS011;39735;51.432;5.482;2023-07-13T10:17:10;16.48;;;3.05;;
53833;SDS011;39735;51.432;5.482;2023-07-13T10:19:37;24.77;;;5.20;;
53833;SDS011;39735;51.432;5.482;2023-07-13T10:22:10;15.23;;;4.70;;
53833;SDS011;39735;51.432;5.482;2023-07-13T10:24:38;13.68;;;4.20;;
53833;SDS011;39735;51.432;5.482;2023-07-13T10:29:38;18.95;;;3.85;;
53833;SDS011;39735;51.432;5.482;2023-07-13T10:32:09;10.50;;;2.92;;
53833;SDS011;39735;51.432;5.482;2023-07-13T10:34:36;10.50;;;3.90;;
53833;SDS011;39735;51.432;5.482;2023-07-13T10:37:01;33.47;;;11.50;;
53833;SDS011;39735;51.432;5.482;2023-07-13T10:39:27;25.70;;;5.35;;
53833;SDS011;39735;51.432;5.482;2023-07-13T10:41:53;19.73;;;4.35;;
53833;SDS011;39735;51.432;5.482;2023-07-13T10:44:28;20.40;;;3.25;;
53833;SDS011;39735;51.432;5.482;2023-07-13T10:47:00;16.07;;;3.40;;
53833;SDS011;39735;51.432;5.482;2023-07-13T10:49:26;13.48;;;3.58;;
53833;SDS011;39735;51.432;5.482;2023-07-13T10:51:53;6.60;;;2.83;;
53833;SDS011;39735;51.432;5.482;2023-07-13T10:54:19;22.98;;;4.70;;
53833;SDS011;39735;51.432;5.482;2023-07-13T10:56:52;20.27;;;3.67;;
53833;SDS011;39735;51.432;5.482;2023-07-13T10:59:22;15.70;;;3.15;;
53833;SDS011;39735;51.432;5.482;2023-07-13T11:01:54;10.23;;;4.15;;
53833;SDS011;39735;51.432;5.482;2023-07-13T11:04:21;16.90;;;4.32;;
53833;SDS011;39735;51.432;5.482;2023-07-13T11:06:47;11.18;;;2.58;;
53833;SDS011;39735;51.432;5.482;2023-07-13T11:12:02;14.50;;;2.83;;
53833;SDS011;39735;51.432;5.482;2023-07-13T11:17:23;22.38;;;3.53;;
53833;SDS011;39735;51.432;5.482;2023-07-13T11:19:46;23.90;;;2.67;;
53833;SDS011;39735;51.432;5.482;2023-07-13T11:22:16;16.92;;;4.05;;
53833;SDS011;39735;51.432;5.482;2023-07-13T11:27:21;21.42;;;3.78;;
53833;SDS011;39735;51.432;5.482;2023-07-13T11:29:47;3.47;;;1.80;;
53833;SDS011;39735;51.432;5.482;2023-07-13T11:32:23;15.48;;;3.15;;
53833;SDS011;39735;51.432;5.482;2023-07-13T11:34:51;22.42;;;5.07;;
53833;SDS011;39735;51.432;5.482;2023-07-13T11:37:18;9.18;;;3.22;;
53833;SDS011;39735;51.432;5.482;2023-07-13T11:39:44;12.60;;;3.83;;
53833;SDS011;39735;51.432;5.482;2023-07-13T11:42:15;25.05;;;3.97;;
53833;SDS011;39735;51.432;5.482;2023-07-13T11:44:45;24.85;;;3.67;;
53833;SDS011;39735;51.432;5.482;2023-07-13T11:47:14;18.65;;;2.55;;
53833;SDS011;39735;51.432;5.482;2023-07-13T11:49:50;20.05;;;4.18;;
53833;SDS011;39735;51.432;5.482;2023-07-13T11:52:17;12.90;;;2.70;;
53833;SDS011;39735;51.432;5.482;2023-07-13T11:55:08;9.57;;;3.53;;
53833;SDS011;39735;51.432;5.482;2023-07-13T11:57:30;21.30;;;4.28;;
53833;SDS011;39735;51.432;5.482;2023-07-13T11:59:56;14.02;;;2.50;;
53833;SDS011;39735;51.432;5.482;2023-07-13T12:02:29;20.38;;;3.03;;
53833;SDS011;39735;51.432;5.482;2023-07-13T12:04:56;12.63;;;2.70;;
53833;SDS011;39735;51.432;5.482;2023-07-13T12:07:22;30.02;;;3.97;;
53833;SDS011;39735;51.432;5.482;2023-07-13T12:09:47;21.33;;;2.72;;
53833;SDS011;39735;51.432;5.482;2023-07-13T12:12:17;8.40;;;2.03;;
53833;SDS011;39735;51.432;5.482;2023-07-13T12:14:42;6.60;;;1.92;;
53833;SDS011;39735;51.432;5.482;2023-07-13T12:17:24;13.15;;;2.97;;
53833;SDS011;39735;51.432;5.482;2023-07-13T12:19:50;11.63;;;2.20;;
53833;SDS011;39735;51.432;5.482;2023-07-13T12:22:16;6.22;;;2.38;;
53833;SDS011;39735;51.432;5.482;2023-07-13T12:24:42;27.95;;;2.40;;
53833;SDS011;39735;51.432;5.482;2023-07-13T12:30:03;9.18;;;2.63;;
53833;SDS011;39735;51.432;5.482;2023-07-13T12:32:30;19.05;;;2.58;;
53833;SDS011;39735;51.432;5.482;2023-07-13T12:34:57;12.05;;;2.20;;
53833;SDS011;39735;51.432;5.482;2023-07-13T12:37:23;13.15;;;4.47;;
53833;SDS011;39735;51.432;5.482;2023-07-13T12:39:48;6.30;;;2.53;;
53833;SDS011;39735;51.432;5.482;2023-07-13T12:44:46;13.10;;;2.97;;
53833;SDS011;39735;51.432;5.482;2023-07-13T12:47:12;9.73;;;2.50;;
53833;SDS011;39735;51.432;5.482;2023-07-13T12:49:40;16.65;;;3.35;;
53833;SDS011;39735;51.432;5.482;2023-07-13T12:52:16;19.30;;;2.00;;
53833;SDS011;39735;51.432;5.482;2023-07-13T12:54:41;17.48;;;2.28;;
53833;SDS011;39735;51.432;5.482;2023-07-13T12:57:08;14.45;;;2.55;;
53833;SDS011;39735;51.432;5.482;2023-07-13T12:59:39;4.95;;;2.05;;
53833;SDS011;39735;51.432;5.482;2023-07-13T13:02:21;13.82;;;2.00;;
53833;SDS011;39735;51.432;5.482;2023-07-13T13:04:48;12.57;;;2.38;;
53833;SDS011;39735;51.432;5.482;2023-07-13T13:07:22;8.80;;;2.63;;
53833;SDS011;39735;51.432;5.482;2023-07-13T13:09:48;10.68;;;2.90;;
53833;SDS011;39735;51.432;5.482;2023-07-13T13:12:18;26.83;;;3.53;;
53833;SDS011;39735;51.432;5.482;2023-07-13T13:14:47;16.67;;;3.08;;
53833;SDS011;39735;51.432;5.482;2023-07-13T13:17:21;13.43;;;1.83;;
53833;SDS011;39735;51.432;5.482;2023-07-13T13:19:46;12.50;;;3.40;;
53833;SDS011;39735;51.432;5.482;2023-07-13T13:22:17;10.30;;;2.78;;
53833;SDS011;39735;51.432;5.482;2023-07-13T13:24:46;17.02;;;2.72;;
53833;SDS011;39735;51.432;5.482;2023-07-13T13:27:17;13.10;;;3.25;;
53833;SDS011;39735;51.432;5.482;2023-07-13T13:29:43;6.68;;;2.72;;
53833;SDS011;39735;51.432;5.482;2023-07-13T13:32:09;20.17;;;3.38;;
53833;SDS011;39735;51.432;5.482;2023-07-13T13:34:36;5.25;;;2.72;;
53833;SDS011;39735;51.432;5.482;2023-07-13T13:37:01;14.63;;;3.85;;
53833;SDS011;39735;51.432;5.482;2023-07-13T13:39:34;18.92;;;4.28;;
53833;SDS011;39735;51.432;5.482;2023-07-13T13:42:00;12.23;;;2.77;;
53833;SDS011;39735;51.432;5.482;2023-07-13T13:44:25;18.40;;;2.75;;
53833;SDS011;39735;51.432;5.482;2023-07-13T13:46:51;9.38;;;2.63;;
53833;SDS011;39735;51.432;5.482;2023-07-13T13:49:17;9.73;;;2.70;;
53833;SDS011;39735;51.432;5.482;2023-07-13T13:51:44;6.13;;;2.65;;
53833;SDS011;39735;51.432;5.482;2023-07-13T13:54:13;12.85;;;3.90;;
53833;SDS011;39735;51.432;5.482;2023-07-13T13:56:39;12.15;;;2.78;;
53833;SDS011;39735;51.432;5.482;2023-07-13T13:59:04;7.43;;;3.08;;
53833;SDS011;39735;51.432;5.482;2023-07-13T14:01:29;24.73;;;4.00;;
53833;SDS011;39735;51.432;5.482;2023-07-13T14:03:55;17.42;;;3.55;;
53833;SDS011;39735;51.432;5.482;2023-07-13T14:06:21;9.30;;;3.27;;
53833;SDS011;39735;51.432;5.482;2023-07-13T14:08:46;8.55;;;2.38;;
53833;SDS011;39735;51.432;5.482;2023-07-13T14:11:16;16.40;;;4.03;;
53833;SDS011;39735;51.432;5.482;2023-07-13T14:13:42;15.15;;;3.50;;
53833;SDS011;39735;51.432;5.482;2023-07-13T14:16:12;4.18;;;2.42;;
53833;SDS011;39735;51.432;5.482;2023-07-13T14:18:38;17.70;;;2.47;;
53833;SDS011;39735;51.432;5.482;2023-07-13T14:21:08;10.40;;;1.92;;
53833;SDS011;39735;51.432;5.482;2023-07-13T14:23:36;14.57;;;1.40;;
53833;SDS011;39735;51.432;5.482;2023-07-13T14:26:02;17.23;;;3.63;;
53833;SDS011;39735;51.432;5.482;2023-07-13T14:28:27;7.25;;;1.80;;
53833;SDS011;39735;51.432;5.482;2023-07-13T14:30:53;6.63;;;2.22;;
53833;SDS011;39735;51.432;5.482;2023-07-13T14:33:21;18.25;;;2.38;;
53833;SDS011;39735;51.432;5.482;2023-07-13T14:35:47;19.90;;;3.22;;
53833;SDS011;39735;51.432;5.482;2023-07-13T14:38:16;2.63;;;1.15;;
53833;SDS011;39735;51.432;5.482;2023-07-13T14:40:42;6.88;;;2.03;;
53833;SDS011;39735;51.432;5.482;2023-07-13T14:43:16;3.58;;;1.42;;
53833;SDS011;39735;51.432;5.482;2023-07-13T14:45:48;1.88;;;1.70;;
53833;SDS011;39735;51.432;5.482;2023-07-13T14:48:18;3.08;;;1.63;;
53833;SDS011;39735;51.432;5.482;2023-07-13T14:50:45;3.63;;;1.83;;
53833;SDS011;39735;51.432;5.482;2023-07-13T14:53:12;4.55;;;2.17;;
53833;SDS011;39735;51.432;5.482;2023-07-13T14:55:37;4.40;;;1.88;;
53833;SDS011;39735;51.432;5.482;2023-07-13T14:58:03;5.93;;;1.92;;
53833;SDS011;39735;51.432;5.482;2023-07-13T15:00:28;8.27;;;2.60;;
53833;SDS011;39735;51.432;5.482;2023-07-13T15:02:55;5.05;;;2.22;;
53833;SDS011;39735;51.432;5.482;2023-07-13T15:05:22;4.25;;;1.33;;
53833;SDS011;39735;51.432;5.482;2023-07-13T15:07:51;0.60;;;0.60;;
53833;SDS011;39735;51.432;5.482;2023-07-13T15:10:18;13.80;;;2.92;;